createdAt,value
2023-07-18T00:01:21.645Z,9.10
2023-07-18T00:03:49.207Z,9.10
2023-07-18T00:06:19.055Z,9.10
2023-07-18T00:08:46.291Z,9.10
2023-07-18T00:11:13.256Z,9.10
2023-07-18T00:13:40.208Z,9.10
2023-07-18T00:16:07.156Z,9.20
2023-07-18T00:18:34.090Z,9.20
2023-07-18T00:21:01.055Z,9.20
2023-07-18T00:23:28.928Z,9.10
2023-07-18T00:25:55.835Z,9.10
2023-07-18T00:28:22.757Z,9.00
2023-07-18T00:30:49.631Z,9.00
2023-07-18T00:33:16.717Z,9.00
2023-07-18T00:35:44.727Z,9.00
2023-07-18T00:38:14.763Z,9.00
2023-07-18T00:40:42.289Z,8.90
2023-07-18T00:43:16.287Z,8.90
2023-07-18T00:45:46.355Z,8.90
2023-07-18T00:48:13.398Z,8.70
2023-07-18T00:50:40.705Z,8.70
2023-07-18T00:53:08.348Z,8.60
2023-07-18T00:55:35.309Z,8.50
2023-07-18T00:58:04.494Z,8.50
2023-07-18T01:00:31.607Z,8.50
2023-07-18T01:02:58.685Z,8.50
2023-07-18T01:05:25.835Z,8.50
2023-07-18T01:07:52.827Z,8.50
2023-07-18T01:10:26.736Z,8.40
2023-07-18T01:12:59.642Z,8.40
2023-07-18T01:15:33.297Z,8.30
2023-07-18T01:18:08.235Z,8.30
2023-07-18T01:20:37.162Z,8.20
2023-07-18T01:23:05.245Z,8.20
2023-07-18T01:25:32.881Z,8.20
2023-07-18T01:28:02.417Z,8.20
2023-07-18T01:30:31.108Z,8.10
2023-07-18T01:32:58.596Z,8.10
2023-07-18T01:35:28.091Z,8.10
2023-07-18T01:37:57.798Z,8.10
2023-07-18T01:40:25.422Z,8.10
2023-07-18T01:42:57.319Z,8.10
2023-07-18T01:45:26.622Z,8.00
2023-07-18T01:47:55.536Z,8.00
2023-07-18T01:50:22.451Z,7.90
2023-07-18T01:52:49.769Z,7.80
2023-07-18T01:55:17.416Z,7.70
2023-07-18T01:57:49.263Z,7.70
2023-07-18T02:00:20.670Z,7.50
2023-07-18T02:02:51.216Z,7.50
2023-07-18T02:05:25.496Z,7.40
2023-07-18T02:07:53.476Z,7.40
2023-07-18T02:10:22.518Z,7.40
2023-07-18T02:12:51.680Z,7.40
2023-07-18T02:15:20.508Z,7.40
2023-07-18T02:17:48.317Z,7.50
2023-07-18T02:20:15.772Z,7.40
2023-07-18T02:22:46.115Z,7.40
2023-07-18T02:25:16.626Z,7.40
2023-07-18T02:27:44.014Z,7.40
2023-07-18T02:30:13.511Z,7.30
2023-07-18T02:32:42.636Z,7.30
2023-07-18T02:35:12.418Z,7.30
2023-07-18T02:37:39.650Z,7.30
2023-07-18T02:40:10.943Z,7.30
2023-07-18T02:42:39.624Z,7.20
2023-07-18T02:45:10.564Z,7.30
2023-07-18T02:47:38.383Z,7.30
2023-07-18T02:50:06.526Z,7.30
2023-07-18T02:52:33.559Z,7.30
2023-07-18T02:55:00.656Z,7.30
2023-07-18T02:57:27.737Z,7.30
2023-07-18T02:59:54.668Z,7.30
2023-07-18T03:02:21.950Z,7.20
2023-07-18T03:04:49.531Z,7.30
2023-07-18T03:07:19.052Z,7.20
2023-07-18T03:09:47.053Z,7.20
2023-07-18T03:12:14.656Z,7.10
2023-07-18T03:14:41.786Z,7.00
2023-07-18T03:17:08.891Z,7.10
2023-07-18T03:19:35.892Z,6.90
2023-07-18T03:22:02.944Z,6.80
2023-07-18T03:24:29.886Z,6.80
2023-07-18T03:26:56.812Z,6.80
2023-07-18T03:29:24.382Z,6.80
2023-07-18T03:31:51.996Z,6.80
2023-07-18T03:34:18.973Z,6.90
2023-07-18T03:36:46.129Z,6.90
2023-07-18T03:39:14.944Z,6.90
2023-07-18T03:41:42.068Z,7.00
2023-07-18T03:44:09.556Z,7.00
2023-07-18T03:46:36.849Z,7.00
2023-07-18T03:49:03.972Z,7.00
2023-07-18T03:51:31.858Z,7.00
2023-07-18T03:54:02.050Z,7.00
2023-07-18T03:56:32.318Z,7.00
2023-07-18T03:58:59.595Z,7.00
2023-07-18T04:01:27.030Z,7.10
2023-07-18T04:03:54.271Z,7.00
2023-07-18T04:06:21.580Z,6.90
2023-07-18T04:08:48.543Z,6.90
2023-07-18T04:11:15.478Z,6.90
2023-07-18T04:13:42.457Z,7.00
2023-07-18T04:16:09.365Z,7.00
2023-07-18T04:18:36.313Z,7.10
2023-07-18T04:21:03.830Z,7.20
2023-07-18T04:23:32.463Z,7.30
2023-07-18T04:26:02.541Z,7.50
2023-07-18T04:28:35.959Z,7.50
2023-07-18T04:31:04.023Z,7.70
2023-07-18T04:33:36.228Z,7.80
2023-07-18T04:36:08.094Z,7.90
2023-07-18T04:38:36.120Z,8.00
2023-07-18T04:41:06.187Z,8.20
2023-07-18T04:43:33.232Z,8.40
2023-07-18T04:46:00.316Z,8.30
2023-07-18T04:48:27.403Z,8.50
2023-07-18T04:51:00.822Z,8.60
2023-07-18T04:53:29.411Z,8.70
2023-07-18T04:55:56.894Z,8.80
2023-07-18T04:58:28.563Z,8.90
2023-07-18T05:00:58.288Z,9.00
2023-07-18T05:03:26.914Z,9.10
2023-07-18T05:05:54.989Z,9.30
2023-07-18T05:08:22.381Z,9.40
2023-07-18T05:10:50.649Z,9.70
2023-07-18T05:13:17.707Z,9.90
2023-07-18T05:15:44.930Z,10.40
2023-07-18T05:18:11.976Z,10.80
2023-07-18T05:20:39.744Z,11.30
2023-07-18T05:23:06.802Z,11.70
2023-07-18T05:25:34.488Z,12.10
2023-07-18T05:28:01.581Z,12.40
2023-07-18T05:30:28.630Z,12.70
2023-07-18T05:32:55.975Z,12.90
2023-07-18T05:35:23.401Z,13.10
2023-07-18T05:37:50.473Z,13.30
2023-07-18T05:40:21.770Z,13.60
2023-07-18T05:42:49.946Z,13.80
2023-07-18T05:45:17.277Z,14.10
2023-07-18T05:47:44.218Z,14.20
2023-07-18T05:50:12.305Z,14.40
2023-07-18T05:52:39.638Z,14.60
2023-07-18T05:55:08.704Z,14.90
2023-07-18T05:57:36.120Z,15.20
2023-07-18T06:00:07.571Z,15.50
2023-07-18T06:02:35.852Z,15.80
2023-07-18T06:05:02.964Z,16.20
2023-07-18T06:07:29.963Z,16.60
2023-07-18T06:09:56.863Z,16.90
2023-07-18T06:12:23.860Z,17.20
2023-07-18T06:14:51.067Z,17.40
2023-07-18T06:17:18.023Z,17.70
2023-07-18T06:19:47.616Z,17.90
2023-07-18T06:22:14.620Z,18.10
2023-07-18T06:24:42.512Z,18.20
2023-07-18T06:27:09.666Z,18.20
2023-07-18T06:29:36.628Z,18.20
2023-07-18T06:32:06.441Z,18.30
2023-07-18T06:34:34.515Z,18.30
2023-07-18T06:37:03.559Z,18.30
2023-07-18T06:39:30.625Z,18.40
2023-07-18T06:41:58.884Z,18.50
2023-07-18T06:44:25.977Z,18.60
2023-07-18T06:46:54.492Z,18.80
2023-07-18T06:49:22.190Z,18.80
2023-07-18T06:51:50.992Z,18.90
2023-07-18T06:54:18.675Z,18.90
2023-07-18T06:56:46.290Z,18.90
2023-07-18T06:59:16.561Z,18.90
2023-07-18T07:01:43.521Z,19.10
2023-07-18T07:04:11.970Z,19.10
2023-07-18T07:06:43.498Z,19.10
2023-07-18T07:09:13.891Z,19.20
2023-07-18T07:11:42.012Z,19.30
2023-07-18T07:14:09.005Z,19.40
2023-07-18T07:16:38.654Z,19.50
2023-07-18T07:19:06.917Z,19.60
2023-07-18T07:21:33.959Z,19.80
2023-07-18T07:24:01.870Z,20.00
2023-07-18T07:26:28.822Z,20.40
2023-07-18T07:28:55.797Z,20.70
2023-07-18T07:31:22.952Z,21.00
2023-07-18T07:33:50.288Z,21.40
2023-07-18T07:36:17.521Z,21.60
2023-07-18T07:38:44.428Z,21.80
2023-07-18T07:41:11.512Z,21.90
2023-07-18T07:43:38.588Z,21.90
2023-07-18T07:46:05.710Z,21.70
2023-07-18T07:48:32.907Z,21.60
2023-07-18T07:51:05.028Z,21.50
2023-07-18T07:53:32.598Z,21.30
2023-07-18T07:55:59.575Z,21.20
2023-07-18T07:58:26.502Z,21.20
2023-07-18T08:00:53.406Z,21.20
2023-07-18T08:03:20.368Z,21.30
2023-07-18T08:05:47.459Z,21.30
2023-07-18T08:08:14.507Z,21.40
2023-07-18T08:10:41.431Z,21.50
2023-07-18T08:13:08.772Z,21.50
2023-07-18T08:15:35.730Z,21.50
2023-07-18T08:18:02.863Z,21.50
2023-07-18T08:20:30.491Z,21.60
2023-07-18T08:22:57.561Z,21.60
2023-07-18T08:25:24.540Z,21.60
2023-07-18T08:27:51.441Z,21.70
2023-07-18T08:30:18.457Z,21.70
2023-07-18T08:32:45.584Z,22.00
2023-07-18T08:35:12.792Z,22.00
2023-07-18T08:37:42.594Z,22.10
2023-07-18T08:40:11.073Z,22.10
2023-07-18T08:42:38.897Z,22.10
2023-07-18T08:45:09.869Z,22.20
2023-07-18T08:47:39.222Z,22.30
2023-07-18T08:50:11.413Z,22.20
2023-07-18T08:52:38.822Z,22.10
2023-07-18T08:55:07.228Z,22.00
2023-07-18T08:57:34.484Z,22.00
2023-07-18T09:00:05.961Z,21.80
2023-07-18T09:02:33.277Z,21.80
2023-07-18T09:05:00.370Z,21.80
2023-07-18T09:07:28.448Z,21.70
2023-07-18T09:09:56.634Z,21.70
2023-07-18T09:12:23.603Z,21.80
2023-07-18T09:14:58.220Z,21.90
2023-07-18T09:17:25.275Z,22.20
2023-07-18T09:19:53.876Z,22.30
2023-07-18T09:22:20.970Z,22.40
2023-07-18T09:24:49.587Z,22.40
2023-07-18T09:27:20.632Z,22.50
2023-07-18T09:29:50.117Z,22.50
2023-07-18T09:32:22.659Z,22.60
2023-07-18T09:35:03.674Z,22.60
2023-07-18T09:37:30.566Z,22.80
2023-07-18T09:39:57.675Z,22.90
2023-07-18T09:42:25.811Z,22.90
2023-07-18T09:44:53.971Z,22.90
2023-07-18T09:47:22.050Z,22.90
2023-07-18T09:49:50.530Z,23.00
2023-07-18T09:52:24.583Z,23.00
2023-07-18T09:54:54.039Z,23.10
2023-07-18T09:57:22.854Z,23.10
2023-07-18T09:59:51.353Z,23.30
2023-07-18T10:02:19.715Z,23.30
2023-07-18T10:04:49.394Z,23.50
2023-07-18T10:07:18.100Z,23.60
2023-07-18T10:09:45.325Z,23.70
2023-07-18T10:12:12.623Z,23.60
2023-07-18T10:14:57.717Z,23.50
2023-07-18T10:17:43.412Z,23.40
2023-07-18T10:20:20.634Z,23.30
2023-07-18T10:22:50.070Z,23.50
2023-07-18T10:25:21.255Z,23.70
2023-07-18T10:27:50.551Z,24.00
2023-07-18T10:30:21.061Z,24.00
2023-07-18T10:32:54.277Z,23.90
2023-07-18T10:35:27.506Z,23.80
2023-07-18T10:37:57.901Z,23.70
2023-07-18T10:40:40.552Z,23.70
2023-07-18T10:43:11.572Z,23.70
2023-07-18T10:45:41.641Z,23.70
2023-07-18T10:48:16.430Z,23.60
2023-07-18T10:50:45.968Z,23.40
2023-07-18T10:53:20.580Z,23.40
2023-07-18T10:55:48.674Z,23.20
2023-07-18T10:58:20.867Z,23.20
2023-07-18T11:00:50.809Z,23.30
2023-07-18T11:03:29.938Z,23.20
2023-07-18T11:05:56.900Z,23.20
2023-07-18T11:08:33.552Z,23.00
2023-07-18T11:11:05.905Z,22.90
2023-07-18T11:13:35.875Z,22.80
2023-07-18T11:16:12.219Z,22.80
2023-07-18T11:18:43.037Z,22.70
2023-07-18T11:21:11.227Z,22.60
2023-07-18T11:23:40.305Z,22.60
2023-07-18T11:26:16.852Z,22.50
2023-07-18T11:28:46.113Z,22.50
2023-07-18T11:31:43.112Z,22.40
2023-07-18T11:34:10.860Z,22.40
2023-07-18T11:36:41.656Z,22.50
2023-07-18T11:39:21.641Z,22.70
2023-07-18T11:41:49.494Z,22.90
2023-07-18T11:44:25.904Z,23.00
2023-07-18T11:46:54.122Z,22.90
2023-07-18T11:49:40.304Z,22.90
2023-07-18T11:52:10.054Z,23.00
2023-07-18T11:54:37.762Z,23.20
2023-07-18T11:57:06.476Z,23.40
2023-07-18T11:59:34.071Z,23.50
2023-07-18T12:02:02.394Z,23.60
2023-07-18T12:04:29.690Z,23.70
2023-07-18T12:06:56.818Z,23.90
2023-07-18T12:09:23.745Z,24.20
2023-07-18T12:11:50.840Z,24.50
2023-07-18T12:14:17.736Z,24.70
2023-07-18T12:16:44.750Z,24.90
2023-07-18T12:19:11.720Z,25.00
2023-07-18T12:21:38.726Z,24.80
2023-07-18T12:24:05.934Z,24.80
2023-07-18T12:26:32.885Z,24.70
2023-07-18T12:28:59.990Z,24.80
2023-07-18T12:31:27.035Z,24.80
2023-07-18T12:33:54.473Z,25.00
2023-07-18T12:36:21.937Z,25.10
2023-07-18T12:38:49.501Z,24.90
2023-07-18T12:41:18.425Z,24.90
2023-07-18T12:43:45.674Z,25.00
2023-07-18T12:48:50.665Z,24.90
2023-07-18T12:51:17.904Z,24.90
2023-07-18T12:53:44.830Z,25.00
2023-07-18T12:56:11.773Z,25.00
2023-07-18T12:58:38.774Z,24.90
2023-07-18T13:01:05.770Z,25.10
2023-07-18T13:03:33.876Z,25.50
2023-07-18T13:06:01.740Z,25.70
2023-07-18T13:08:29.790Z,25.80
2023-07-18T13:10:56.925Z,26.00
2023-07-18T13:13:24.011Z,26.10
2023-07-18T13:15:50.924Z,26.10
2023-07-18T13:18:17.865Z,26.00
2023-07-18T13:20:45.915Z,25.90
2023-07-18T13:23:13.012Z,25.70
2023-07-18T13:25:39.954Z,25.30
2023-07-18T13:28:06.888Z,25.30
2023-07-18T13:30:36.970Z,25.40
2023-07-18T13:33:05.613Z,25.60
2023-07-18T13:35:32.863Z,25.80
2023-07-18T13:37:59.754Z,25.90
2023-07-18T13:40:27.611Z,26.10
2023-07-18T13:42:54.620Z,26.30
2023-07-18T13:45:22.198Z,26.60
2023-07-18T13:47:49.397Z,26.80
2023-07-18T13:50:30.368Z,27.00
2023-07-18T13:52:58.076Z,27.10
2023-07-18T13:55:25.049Z,27.20
2023-07-18T13:57:51.989Z,27.40
2023-07-18T14:00:19.176Z,27.50
2023-07-18T14:02:47.034Z,27.50
2023-07-18T14:05:14.184Z,27.60
2023-07-18T14:07:41.088Z,27.60
2023-07-18T14:10:09.041Z,27.70
2023-07-18T14:12:35.960Z,27.90
2023-07-18T14:15:04.046Z,28.10
2023-07-18T14:17:31.236Z,28.30
2023-07-18T14:19:58.134Z,28.40
2023-07-18T14:22:26.193Z,28.30
2023-07-18T14:24:53.132Z,28.30
2023-07-18T14:27:19.988Z,28.30
2023-07-18T14:29:46.883Z,28.50
2023-07-18T14:32:13.865Z,28.60
2023-07-18T14:34:40.780Z,28.70
2023-07-18T14:37:07.744Z,28.70
2023-07-18T14:39:40.057Z,28.70
2023-07-18T14:42:08.820Z,28.70
2023-07-18T14:44:36.592Z,28.50
2023-07-18T14:47:04.564Z,28.40
2023-07-18T14:49:31.676Z,28.40
2023-07-18T14:51:58.595Z,28.50
2023-07-18T14:54:25.605Z,28.60
2023-07-18T14:56:52.716Z,28.60
2023-07-18T14:59:19.626Z,28.60
2023-07-18T15:01:46.775Z,28.50
2023-07-18T15:04:13.969Z,28.60
2023-07-18T15:06:40.953Z,28.60
2023-07-18T15:09:07.962Z,28.70
2023-07-18T15:11:34.899Z,28.80
2023-07-18T15:14:01.957Z,28.80
2023-07-18T15:16:30.039Z,28.80
2023-07-18T15:18:57.137Z,28.90
2023-07-18T15:21:24.086Z,28.90
2023-07-18T15:23:51.047Z,28.90
2023-07-18T15:26:18.498Z,29.00
2023-07-18T15:28:45.699Z,29.10
2023-07-18T15:31:12.594Z,29.10
2023-07-18T15:33:39.668Z,29.00
2023-07-18T15:36:06.677Z,29.00
2023-07-18T15:38:33.634Z,29.10
2023-07-18T15:41:00.648Z,29.10
2023-07-18T15:43:27.636Z,28.90
2023-07-18T15:45:55.920Z,28.80
2023-07-18T15:48:23.050Z,28.80
2023-07-18T15:50:50.007Z,28.70
2023-07-18T15:53:16.990Z,28.70
2023-07-18T15:55:44.564Z,28.80
2023-07-18T15:58:12.072Z,28.70
2023-07-18T16:00:39.217Z,28.70
2023-07-18T16:03:06.270Z,28.70
2023-07-18T16:05:33.459Z,28.70
2023-07-18T16:08:00.389Z,28.70
2023-07-18T16:10:27.391Z,28.50
2023-07-18T16:12:54.326Z,28.40
2023-07-18T16:15:22.293Z,28.20
2023-07-18T16:17:49.591Z,28.20
2023-07-18T16:20:16.658Z,28.20
2023-07-18T16:22:50.152Z,28.00
2023-07-18T16:25:17.300Z,27.90
2023-07-18T16:27:44.318Z,27.90
2023-07-18T16:30:12.220Z,27.80
2023-07-18T16:32:39.231Z,27.80
2023-07-18T16:35:07.120Z,27.60
2023-07-18T16:37:34.077Z,27.50
2023-07-18T16:40:01.076Z,27.30
2023-07-18T16:42:29.892Z,27.10
2023-07-18T16:44:56.993Z,27.00
2023-07-18T16:47:24.211Z,26.90
2023-07-18T16:49:51.211Z,26.80
2023-07-18T16:52:18.214Z,26.80
2023-07-18T16:54:46.011Z,26.70
2023-07-18T16:57:14.731Z,26.60
2023-07-18T16:59:41.715Z,26.40
2023-07-18T17:02:08.620Z,26.20
2023-07-18T17:04:35.812Z,26.10
2023-07-18T17:07:02.812Z,25.90
2023-07-18T17:09:29.882Z,25.80
2023-07-18T17:11:56.756Z,25.70
2023-07-18T17:14:23.735Z,25.70
2023-07-18T17:16:51.389Z,25.70
2023-07-18T17:19:18.311Z,25.60
2023-07-18T17:21:45.210Z,25.60
2023-07-18T17:24:12.232Z,25.40
2023-07-18T17:26:39.294Z,25.30
2023-07-18T17:29:06.262Z,25.10
2023-07-18T17:31:33.143Z,25.10
2023-07-18T17:34:02.579Z,25.00
2023-07-18T17:36:30.282Z,24.90
2023-07-18T17:38:57.314Z,24.80
2023-07-18T17:41:24.330Z,24.80
2023-07-18T17:43:51.342Z,24.80
2023-07-18T17:46:18.381Z,24.70
2023-07-18T17:48:45.471Z,24.70
2023-07-18T17:51:12.679Z,24.60
2023-07-18T17:53:39.955Z,24.50
2023-07-18T17:56:07.592Z,24.40
2023-07-18T17:58:34.743Z,24.40
2023-07-18T18:01:01.657Z,24.30
2023-07-18T18:03:28.725Z,24.30
2023-07-18T18:05:55.754Z,24.30
2023-07-18T18:08:22.724Z,24.20
2023-07-18T18:10:49.645Z,24.20
2023-07-18T18:13:17.095Z,24.10
2023-07-18T18:16:00.829Z,24.10
2023-07-18T18:18:32.673Z,24.00
2023-07-18T18:21:02.073Z,24.00
2023-07-18T18:23:38.551Z,23.90
2023-07-18T18:26:08.003Z,23.80
2023-07-18T18:28:38.190Z,23.80
2023-07-18T18:31:05.545Z,23.80
2023-07-18T18:33:35.158Z,23.70
2023-07-18T18:36:02.443Z,23.70
2023-07-18T18:38:29.482Z,23.60
2023-07-18T18:40:56.465Z,23.50
2023-07-18T18:43:23.465Z,23.40
2023-07-18T18:45:50.977Z,23.20
2023-07-18T18:48:17.969Z,23.00
2023-07-18T18:50:44.870Z,22.80
2023-07-18T18:53:11.756Z,22.50
2023-07-18T18:55:38.762Z,22.20
2023-07-18T18:58:05.679Z,21.70
2023-07-18T19:00:32.677Z,21.30
2023-07-18T19:02:59.853Z,20.90
2023-07-18T19:05:27.466Z,20.60
2023-07-18T19:07:54.723Z,20.30
2023-07-18T19:10:21.721Z,20.00
2023-07-18T19:12:48.660Z,19.80
2023-07-18T19:15:15.712Z,19.60
2023-07-18T19:17:43.092Z,19.40
2023-07-18T19:20:11.004Z,19.10
2023-07-18T19:22:38.059Z,18.90
2023-07-18T19:25:09.649Z,18.70
2023-07-18T19:27:37.437Z,18.50
2023-07-18T19:30:09.131Z,18.30
2023-07-18T19:32:37.666Z,18.10
2023-07-18T19:35:05.444Z,17.90
2023-07-18T19:37:32.905Z,17.70
2023-07-18T19:39:59.886Z,17.60
2023-07-18T19:42:26.783Z,17.40
2023-07-18T19:44:55.065Z,17.30
2023-07-18T19:47:22.162Z,17.20
2023-07-18T19:49:50.188Z,17.20
2023-07-18T19:52:17.154Z,17.10
2023-07-18T19:54:44.165Z,17.00
2023-07-18T19:57:11.104Z,16.90
2023-07-18T19:59:37.990Z,16.90
2023-07-18T20:02:05.581Z,16.80
2023-07-18T20:04:32.645Z,16.70
2023-07-18T20:06:59.706Z,16.70
2023-07-18T20:09:26.715Z,16.50
2023-07-18T20:11:53.604Z,16.30
2023-07-18T20:14:20.481Z,16.10
2023-07-18T20:16:47.457Z,15.90
2023-07-18T20:19:15.012Z,15.80
2023-07-18T20:21:42.977Z,15.70
2023-07-18T20:24:10.122Z,15.50
2023-07-18T20:26:37.141Z,15.40
2023-07-18T20:29:05.706Z,15.40
2023-07-18T20:31:32.825Z,15.30
2023-07-18T20:34:00.820Z,15.30
2023-07-18T20:36:28.011Z,15.30
2023-07-18T20:38:55.211Z,15.30
2023-07-18T20:41:22.386Z,15.30
2023-07-18T20:43:49.782Z,15.30
2023-07-18T20:46:17.940Z,15.20
2023-07-18T20:48:45.128Z,15.10
2023-07-18T20:51:13.431Z,15.00
2023-07-18T20:53:40.430Z,14.90
2023-07-18T20:56:07.483Z,14.70
2023-07-18T20:58:34.451Z,14.70
2023-07-18T21:01:01.872Z,14.60
2023-07-18T21:03:29.087Z,14.50
2023-07-18T21:05:56.405Z,14.40
2023-07-18T21:08:23.536Z,14.30
2023-07-18T21:10:50.471Z,14.20
2023-07-18T21:13:17.498Z,14.30
2023-07-18T21:15:44.529Z,14.30
2023-07-18T21:18:11.481Z,14.30
2023-07-18T21:20:38.511Z,14.30
2023-07-18T21:23:05.505Z,14.30
2023-07-18T21:25:32.813Z,14.30
2023-07-18T21:27:59.876Z,14.30
2023-07-18T21:30:26.881Z,14.30
2023-07-18T21:32:53.939Z,14.20
2023-07-18T21:35:24.195Z,14.00
2023-07-18T21:37:51.615Z,13.90
2023-07-18T21:40:21.662Z,13.70
2023-07-18T21:42:49.328Z,13.60
2023-07-18T21:45:16.964Z,13.60
2023-07-18T21:47:46.194Z,13.60
2023-07-18T21:50:13.280Z,13.70
2023-07-18T21:52:40.210Z,13.70
2023-07-18T21:55:08.185Z,13.70
2023-07-18T21:57:35.266Z,13.70
2023-07-18T22:00:03.871Z,13.60
2023-07-18T22:02:38.292Z,13.50
2023-07-18T22:05:05.589Z,13.50
2023-07-18T22:07:32.912Z,13.40
2023-07-18T22:10:04.632Z,13.40
2023-07-18T22:12:31.568Z,13.30
2023-07-18T22:14:58.576Z,13.20
2023-07-18T22:17:25.558Z,13.20
2023-07-18T22:19:52.532Z,13.20
2023-07-18T22:22:19.516Z,13.20
2023-07-18T22:24:46.488Z,13.20
2023-07-18T22:27:13.379Z,13.20
2023-07-18T22:29:40.490Z,13.20
2023-07-18T22:32:09.069Z,13.20
2023-07-18T22:34:36.040Z,13.20
2023-07-18T22:37:03.286Z,13.20
2023-07-18T22:39:36.538Z,13.10
2023-07-18T22:42:22.562Z,13.10
2023-07-18T22:44:51.070Z,12.90
2023-07-18T22:47:19.090Z,12.80
2023-07-18T22:49:47.635Z,12.80
2023-07-18T22:52:20.088Z,12.80
2023-07-18T22:54:48.935Z,12.70
2023-07-18T22:57:17.212Z,12.80
2023-07-18T22:59:44.320Z,12.70
2023-07-18T23:02:11.287Z,12.70
2023-07-18T23:04:38.202Z,12.70
2023-07-18T23:07:05.667Z,12.70
2023-07-18T23:09:33.021Z,12.60
2023-07-18T23:12:00.198Z,12.60
2023-07-18T23:14:27.616Z,12.50
2023-07-18T23:16:54.894Z,12.50
2023-07-18T23:19:21.849Z,12.30
2023-07-18T23:21:48.899Z,12.20
2023-07-18T23:24:15.842Z,12.10
2023-07-18T23:26:42.769Z,12.10
2023-07-18T23:29:09.936Z,12.00
2023-07-18T23:31:38.453Z,12.00
2023-07-18T23:34:06.488Z,12.00
2023-07-18T23:36:33.604Z,11.90
2023-07-18T23:39:12.717Z,12.00
2023-07-18T23:41:40.974Z,12.00
2023-07-18T23:44:07.951Z,12.10
2023-07-18T23:46:34.863Z,12.10
2023-07-18T23:49:02.001Z,12.10
2023-07-18T23:51:28.976Z,12.10
2023-07-18T23:53:55.883Z,12.10
2023-07-18T23:56:22.780Z,12.10
2023-07-18T23:58:49.698Z,12.10
